createdAt,value
2023-03-11T00:00:17.025Z,96183.38
2023-03-11T00:03:04.406Z,96189.97
2023-03-11T00:05:33.732Z,96195.75
2023-03-11T00:08:00.954Z,96175.56
2023-03-11T00:10:30.470Z,96185.75
2023-03-11T00:12:58.336Z,96182.66
2023-03-11T00:15:25.900Z,96185.09
2023-03-11T00:17:52.681Z,96183.78
2023-03-11T00:20:28.204Z,96186.69
2023-03-11T00:22:55.224Z,96190.81
2023-03-11T00:25:23.940Z,96181.78
2023-03-11T00:27:50.894Z,96186.34
2023-03-11T00:30:18.983Z,96206.56
2023-03-11T00:32:48.604Z,96198.44
2023-03-11T00:35:17.599Z,96194.44
2023-03-11T00:37:44.996Z,96196.69
2023-03-11T00:40:17.115Z,96199.94
2023-03-11T00:42:44.036Z,96191.09
2023-03-11T00:45:11.804Z,96193.91
2023-03-11T00:47:38.659Z,96191.41
2023-03-11T00:50:06.708Z,96192.22
2023-03-11T00:52:33.545Z,96194.66
2023-03-11T00:55:00.662Z,96192.22
2023-03-11T00:57:29.196Z,96194.28
2023-03-11T00:59:56.384Z,96199.69
2023-03-11T01:02:23.807Z,96203.44
2023-03-11T01:04:55.690Z,96195.72
2023-03-11T01:07:23.117Z,96193.84
2023-03-11T01:09:50.196Z,96194.97
2023-03-11T01:12:16.989Z,96189.59
2023-03-11T01:14:44.173Z,96196.38
2023-03-11T01:17:10.979Z,96188.09
2023-03-11T01:19:38.055Z,96186.59
2023-03-11T01:22:04.862Z,96178.31
2023-03-11T01:24:31.893Z,96181.00
2023-03-11T01:26:58.696Z,96186.41
2023-03-11T01:29:25.761Z,96187.44
2023-03-11T01:31:52.606Z,96183.44
2023-03-11T01:34:19.713Z,96180.09
2023-03-11T01:36:46.466Z,96186.72
2023-03-11T01:39:13.567Z,96190.59
2023-03-11T01:41:41.400Z,96188.91
2023-03-11T01:44:13.611Z,96191.31
2023-03-11T01:47:02.140Z,96185.56
2023-03-11T01:49:29.277Z,96198.59
2023-03-11T01:52:01.284Z,96191.50
2023-03-11T01:54:30.364Z,96181.94
2023-03-11T01:56:57.124Z,96189.41
2023-03-11T01:59:29.393Z,96182.97
2023-03-11T02:02:14.877Z,96179.16
2023-03-11T02:04:42.089Z,96178.88
2023-03-11T02:07:09.399Z,96180.53
2023-03-11T02:09:36.531Z,96183.81
2023-03-11T02:12:04.158Z,96183.63
2023-03-11T02:14:31.290Z,96183.34
2023-03-11T02:16:58.538Z,96180.09
2023-03-11T02:19:31.678Z,96183.34
2023-03-11T02:21:58.446Z,96179.34
2023-03-11T02:24:34.391Z,96174.59
2023-03-11T02:27:03.748Z,96174.97
2023-03-11T02:29:30.842Z,96179.44
2023-03-11T02:31:57.604Z,96173.03
2023-03-11T02:34:26.629Z,96176.91
2023-03-11T02:36:53.402Z,96185.88
2023-03-11T02:39:37.172Z,96178.69
2023-03-11T02:42:06.182Z,96188.81
2023-03-11T02:44:33.459Z,96180.09
2023-03-11T02:47:00.803Z,96188.38
2023-03-11T02:49:27.973Z,96179.69
2023-03-11T02:51:54.764Z,96182.00
2023-03-11T02:54:21.825Z,96175.78
2023-03-11T02:56:48.623Z,96177.38
2023-03-11T02:59:15.680Z,96172.16
2023-03-11T03:01:42.421Z,96177.09
2023-03-11T03:04:09.574Z,96179.09
2023-03-11T03:06:36.361Z,96185.16
2023-03-11T03:09:03.834Z,96174.94
2023-03-11T03:11:30.596Z,96183.03
2023-03-11T03:13:57.677Z,96189.59
2023-03-11T03:16:24.419Z,96176.31
2023-03-11T03:18:52.454Z,96177.72
2023-03-11T03:21:19.196Z,96179.06
2023-03-11T03:23:46.282Z,96168.69
2023-03-11T03:26:14.181Z,96170.69
2023-03-11T03:28:41.243Z,96181.47
2023-03-11T03:31:09.191Z,96180.19
2023-03-11T03:33:36.280Z,96178.03
2023-03-11T03:36:09.581Z,96191.31
2023-03-11T03:38:36.732Z,96192.69
2023-03-11T03:41:03.720Z,96202.16
2023-03-11T03:43:30.839Z,96191.56
2023-03-11T03:46:03.022Z,96205.00
2023-03-11T03:48:30.309Z,96197.47
2023-03-11T03:50:57.093Z,96206.75
2023-03-11T03:53:24.153Z,96207.13
2023-03-11T03:55:51.031Z,96204.78
2023-03-11T03:58:18.100Z,96204.94
2023-03-11T04:00:44.912Z,96200.78
2023-03-11T04:03:12.074Z,96199.94
2023-03-11T04:05:38.896Z,96213.94
2023-03-11T04:08:05.993Z,96212.44
2023-03-11T04:10:32.777Z,96216.47
2023-03-11T04:12:59.924Z,96217.81
2023-03-11T04:15:26.676Z,96216.00
2023-03-11T04:17:53.811Z,96215.00
2023-03-11T04:20:20.744Z,96206.94
2023-03-11T04:22:47.861Z,96204.81
2023-03-11T04:25:14.793Z,96207.50
2023-03-11T04:27:45.978Z,96216.91
2023-03-11T04:30:13.269Z,96206.16
2023-03-11T04:32:40.507Z,96209.53
2023-03-11T04:35:07.676Z,96204.03
2023-03-11T04:37:34.778Z,96209.47
2023-03-11T04:40:01.588Z,96207.13
2023-03-11T04:42:28.694Z,96206.78
2023-03-11T04:44:55.484Z,96215.91
2023-03-11T04:47:22.533Z,96223.66
2023-03-11T04:49:49.316Z,96224.97
2023-03-11T04:52:16.397Z,96226.66
2023-03-11T04:54:43.155Z,96235.22
2023-03-11T04:57:10.270Z,96242.47
2023-03-11T04:59:37.039Z,96242.13
2023-03-11T05:02:04.187Z,96255.91
2023-03-11T05:04:30.982Z,96248.19
2023-03-11T05:06:58.116Z,96260.28
2023-03-11T05:09:24.937Z,96252.03
2023-03-11T05:11:52.043Z,96265.69
2023-03-11T05:14:18.815Z,96264.00
2023-03-11T05:16:45.919Z,96255.59
2023-03-11T05:19:31.105Z,96264.66
2023-03-11T05:21:58.567Z,96279.47
2023-03-11T05:24:28.197Z,96282.84
2023-03-11T05:26:55.487Z,96280.16
2023-03-11T05:29:22.392Z,96293.63
2023-03-11T05:31:49.551Z,96289.59
2023-03-11T05:34:16.405Z,96295.13
2023-03-11T05:36:43.656Z,96300.53
2023-03-11T05:39:10.598Z,96301.19
2023-03-11T05:41:37.650Z,96305.41
2023-03-11T05:44:04.496Z,96314.31
2023-03-11T05:46:32.380Z,96319.84
2023-03-11T05:49:00.062Z,96321.38
2023-03-11T05:51:27.254Z,96330.94
2023-03-11T05:53:54.055Z,96338.34
2023-03-11T05:56:21.964Z,96347.38
2023-03-11T05:58:48.810Z,96346.88
2023-03-11T06:01:17.298Z,96357.66
2023-03-11T06:03:44.099Z,96363.19
2023-03-11T06:06:12.393Z,96365.22
2023-03-11T06:08:39.202Z,96376.28
2023-03-11T06:11:07.936Z,96373.25
2023-03-11T06:13:35.123Z,96380.00
2023-03-11T06:16:02.363Z,96387.03
2023-03-11T06:18:29.148Z,96395.09
2023-03-11T06:20:59.813Z,96401.66
2023-03-11T06:23:27.037Z,96410.38
2023-03-11T06:25:58.173Z,96411.91
2023-03-11T06:28:25.166Z,96426.16
2023-03-11T06:30:52.280Z,96425.66
2023-03-11T06:33:19.090Z,96423.31
2023-03-11T06:35:56.761Z,96429.34
2023-03-11T06:38:23.623Z,96433.88
2023-03-11T06:40:50.655Z,96429.50
2023-03-11T06:43:17.448Z,96433.72
2023-03-11T06:45:45.294Z,96441.94
2023-03-11T06:48:12.078Z,96441.75
2023-03-11T06:50:39.201Z,96445.59
2023-03-11T06:53:08.812Z,96450.81
2023-03-11T06:55:36.149Z,96446.47
2023-03-11T06:58:03.793Z,96452.84
2023-03-11T07:00:31.247Z,96461.03
2023-03-11T07:02:58.177Z,96468.09
2023-03-11T07:05:25.320Z,96465.91
2023-03-11T07:07:54.610Z,96472.78
2023-03-11T07:10:21.745Z,96479.31
2023-03-11T07:12:48.579Z,96478.97
2023-03-11T07:15:15.660Z,96488.56
2023-03-11T07:17:42.532Z,96496.06
2023-03-11T07:20:10.423Z,96495.03
2023-03-11T07:22:37.245Z,96506.16
2023-03-11T07:25:04.647Z,96502.63
2023-03-11T07:27:31.406Z,96505.47
2023-03-11T07:29:58.512Z,96514.69
2023-03-11T07:32:25.380Z,96516.97
2023-03-11T07:34:52.577Z,96526.03
2023-03-11T07:37:19.812Z,96522.81
2023-03-11T07:39:46.928Z,96526.84
2023-03-11T07:42:13.673Z,96535.03
2023-03-11T07:44:40.766Z,96538.53
2023-03-11T07:47:07.553Z,96538.84
2023-03-11T07:49:34.623Z,96542.06
2023-03-11T07:52:01.474Z,96551.25
2023-03-11T07:54:28.531Z,96557.13
2023-03-11T07:56:55.314Z,96557.81
2023-03-11T07:59:22.490Z,96564.16
2023-03-11T08:01:50.601Z,96567.31
2023-03-11T08:04:18.909Z,96562.13
2023-03-11T08:06:46.669Z,96575.16
2023-03-11T08:09:13.783Z,96576.31
2023-03-11T08:11:40.668Z,96581.69
2023-03-11T08:14:07.852Z,96593.25
2023-03-11T08:16:34.705Z,96584.06
2023-03-11T08:19:02.025Z,96601.16
2023-03-11T08:21:30.020Z,96610.38
2023-03-11T08:23:58.507Z,96601.97
2023-03-11T08:26:25.355Z,96608.00
2023-03-11T08:28:52.494Z,96610.59
2023-03-11T08:31:26.843Z,96629.53
2023-03-11T08:33:59.350Z,96629.53
2023-03-11T08:36:26.521Z,96631.06
2023-03-11T08:38:53.661Z,96625.69
2023-03-11T08:41:20.584Z,96632.06
2023-03-11T08:43:47.737Z,96631.91
2023-03-11T08:46:19.489Z,96635.06
2023-03-11T08:48:46.625Z,96635.38
2023-03-11T08:51:13.522Z,96640.72
2023-03-11T08:53:40.742Z,96646.56
2023-03-11T08:56:07.924Z,96649.09
2023-03-11T08:58:35.132Z,96666.19
2023-03-11T09:01:02.048Z,96666.50
2023-03-11T09:03:32.121Z,96661.66
2023-03-11T09:06:02.593Z,96679.47
2023-03-11T09:08:29.962Z,96672.47
2023-03-11T09:10:56.788Z,96675.13
2023-03-11T09:13:23.993Z,96683.34
2023-03-11T09:15:51.287Z,96688.69
2023-03-11T09:18:18.488Z,96697.22
2023-03-11T09:20:45.433Z,96707.09
2023-03-11T09:23:14.045Z,96704.56
2023-03-11T09:25:40.883Z,96711.63
2023-03-11T09:28:07.992Z,96721.13
2023-03-11T09:30:35.764Z,96717.44
2023-03-11T09:33:03.002Z,96717.81
2023-03-11T09:35:29.836Z,96729.66
2023-03-11T09:37:56.989Z,96725.34
2023-03-11T09:40:23.965Z,96731.56
2023-03-11T09:43:09.789Z,96736.47
2023-03-11T09:45:38.882Z,96749.56
2023-03-11T09:48:25.314Z,96753.53
2023-03-11T09:51:08.465Z,96753.38
2023-03-11T09:53:40.771Z,96770.19
2023-03-11T09:56:18.212Z,96773.59
2023-03-11T09:58:47.573Z,96786.28
2023-03-11T10:01:22.493Z,96786.50
2023-03-11T10:03:50.604Z,96790.56
2023-03-11T10:06:21.746Z,96803.09
2023-03-11T10:09:01.087Z,96806.63
2023-03-11T10:11:36.966Z,96804.94
2023-03-11T10:14:25.926Z,96818.94
2023-03-11T10:17:23.154Z,96818.22
2023-03-11T10:19:53.528Z,96828.09
2023-03-11T10:23:05.526Z,96828.13
2023-03-11T10:26:20.351Z,96837.16
2023-03-11T10:28:51.247Z,96839.72
2023-03-11T10:31:38.112Z,96846.91
2023-03-11T10:34:14.002Z,96858.47
2023-03-11T10:36:55.997Z,96864.94
2023-03-11T10:39:23.003Z,96881.59
2023-03-11T10:41:52.835Z,96872.56
2023-03-11T10:44:23.977Z,96889.63
2023-03-11T10:46:51.111Z,96901.06
2023-03-11T10:49:18.359Z,96915.97
2023-03-11T10:51:50.515Z,96909.50
2023-03-11T10:54:31.740Z,96914.88
2023-03-11T10:57:06.949Z,96929.97
2023-03-11T10:59:34.795Z,96921.50
2023-03-11T11:02:03.676Z,96927.84
2023-03-11T11:04:40.748Z,96940.66
2023-03-11T11:07:41.188Z,96948.72
2023-03-11T11:10:20.529Z,96951.09
2023-03-11T11:13:12.691Z,96964.22
2023-03-11T11:16:03.057Z,96967.19
2023-03-11T11:18:30.168Z,96974.78
2023-03-11T11:21:01.243Z,96971.53
2023-03-11T11:23:48.626Z,96979.13
2023-03-11T11:26:22.378Z,96984.66
2023-03-11T11:29:15.841Z,97005.81
2023-03-11T11:31:46.208Z,97009.50
2023-03-11T11:34:33.046Z,97014.59
2023-03-11T11:37:01.904Z,97026.00
2023-03-11T11:39:30.652Z,97040.97
2023-03-11T11:41:57.520Z,97039.38
2023-03-11T11:44:31.471Z,97050.25
2023-03-11T11:47:06.331Z,97053.94
2023-03-11T11:49:33.548Z,97062.66
2023-03-11T11:52:14.029Z,97066.44
2023-03-11T11:54:46.337Z,97078.66
2023-03-11T11:57:14.701Z,97087.41
2023-03-11T11:59:42.299Z,97089.38
2023-03-11T12:02:52.984Z,97096.41
2023-03-11T12:05:27.465Z,97105.28
2023-03-11T12:07:58.117Z,97107.72
2023-03-11T12:10:39.832Z,97123.88
2023-03-11T12:13:21.888Z,97111.50
2023-03-11T12:16:02.530Z,97124.31
2023-03-11T12:18:40.534Z,97128.22
2023-03-11T12:21:27.429Z,97120.16
2023-03-11T12:24:25.175Z,97127.16
2023-03-11T12:26:52.552Z,97133.81
2023-03-11T12:29:29.570Z,97140.28
2023-03-11T12:31:56.693Z,97139.84
2023-03-11T12:34:24.924Z,97145.91
2023-03-11T12:36:52.446Z,97165.91
2023-03-11T12:39:25.431Z,97150.22
2023-03-11T12:42:11.185Z,97165.34
2023-03-11T12:44:38.707Z,97174.75
2023-03-11T12:47:09.083Z,97181.53
2023-03-11T12:49:46.838Z,97189.19
2023-03-11T12:52:13.912Z,97203.94
2023-03-11T12:54:40.747Z,97208.31
2023-03-11T12:57:16.938Z,97211.03
2023-03-11T12:59:49.676Z,97222.28
2023-03-11T13:02:28.880Z,97221.28
2023-03-11T13:04:59.670Z,97238.19
2023-03-11T13:07:51.093Z,97233.06
2023-03-11T13:10:40.714Z,97248.63
2023-03-11T13:13:32.509Z,97248.41
2023-03-11T13:16:19.391Z,97250.75
2023-03-11T13:18:51.658Z,97263.06
2023-03-11T13:21:27.562Z,97265.25
2023-03-11T13:24:16.203Z,97259.78
2023-03-11T13:27:05.008Z,97279.22
2023-03-11T13:30:17.118Z,97281.69
2023-03-11T13:32:53.028Z,97290.94
2023-03-11T13:35:34.100Z,97289.50
2023-03-11T13:38:13.311Z,97302.69
2023-03-11T13:40:41.914Z,97310.00
2023-03-11T13:43:25.477Z,97321.56
2023-03-11T13:46:00.733Z,97314.66
2023-03-11T13:48:37.659Z,97324.22
2023-03-11T13:51:12.249Z,97320.00
2023-03-11T13:53:43.217Z,97322.44
2023-03-11T13:56:49.190Z,97326.06
2023-03-11T13:59:17.841Z,97338.97
2023-03-11T14:01:55.110Z,97346.41
2023-03-11T14:04:30.263Z,97344.25
2023-03-11T14:06:58.198Z,97360.06
2023-03-11T14:09:26.558Z,97368.22
2023-03-11T14:11:56.877Z,97365.28
2023-03-11T14:15:01.186Z,97376.25
2023-03-11T14:17:28.269Z,97385.16
2023-03-11T14:20:15.297Z,97382.97
2023-03-11T14:22:52.509Z,97389.03
2023-03-11T14:25:27.505Z,97382.72
2023-03-11T14:27:58.519Z,97394.84
2023-03-11T14:30:30.295Z,97388.41
2023-03-11T14:33:00.572Z,97394.84
2023-03-11T14:35:27.454Z,97403.47
2023-03-11T14:37:54.619Z,97406.28
2023-03-11T14:40:28.763Z,97411.50
2023-03-11T14:42:57.722Z,97404.97
2023-03-11T14:45:32.930Z,97415.31
2023-03-11T14:48:04.702Z,97419.28
2023-03-11T14:50:35.079Z,97420.25
2023-03-11T14:53:14.280Z,97434.53
2023-03-11T14:55:51.118Z,97451.91
2023-03-11T14:58:34.677Z,97454.53
2023-03-11T15:01:19.765Z,97458.16
2023-03-11T15:03:50.165Z,97463.03
2023-03-11T15:06:18.305Z,97472.28
2023-03-11T15:08:50.885Z,97478.88
2023-03-11T15:11:20.012Z,97478.13
2023-03-11T15:13:50.541Z,97475.69
2023-03-11T15:16:43.903Z,97492.34
2023-03-11T15:19:29.536Z,97497.47
2023-03-11T15:21:59.913Z,97507.06
2023-03-11T15:24:28.769Z,97506.81
2023-03-11T15:26:56.516Z,97514.97
2023-03-11T15:29:23.744Z,97521.31
2023-03-11T15:31:50.624Z,97526.06
2023-03-11T15:34:17.697Z,97525.97
2023-03-11T15:37:20.474Z,97525.31
2023-03-11T15:39:51.134Z,97528.75
2023-03-11T15:42:23.062Z,97533.13
2023-03-11T15:45:24.242Z,97537.75
2023-03-11T15:47:51.012Z,97534.59
2023-03-11T15:50:24.778Z,97535.41
2023-03-11T15:52:56.508Z,97549.28
2023-03-11T15:55:24.420Z,97554.28
2023-03-11T15:57:52.679Z,97561.34
2023-03-11T16:00:22.319Z,97569.50
2023-03-11T16:02:50.103Z,97580.78
2023-03-11T16:05:22.028Z,97572.66
2023-03-11T16:07:48.951Z,97587.38
2023-03-11T16:10:18.074Z,97592.84
2023-03-11T16:12:44.954Z,97597.09
2023-03-11T16:15:28.643Z,97600.63
2023-03-11T16:17:57.494Z,97598.44
2023-03-11T16:20:25.663Z,97606.22
2023-03-11T16:22:53.684Z,97623.72
2023-03-11T16:25:26.707Z,97628.78
2023-03-11T16:27:54.021Z,97626.63
2023-03-11T16:30:21.358Z,97633.78
2023-03-11T16:32:48.206Z,97639.38
2023-03-11T16:35:15.420Z,97646.41
2023-03-11T16:37:43.358Z,97643.84
2023-03-11T16:40:15.701Z,97652.41
2023-03-11T16:42:43.671Z,97655.69
2023-03-11T16:45:12.408Z,97664.44
2023-03-11T16:47:39.231Z,97682.56
2023-03-11T16:50:07.005Z,97681.56
2023-03-11T16:52:34.169Z,97684.38
2023-03-11T16:55:01.403Z,97690.59
2023-03-11T16:57:28.259Z,97694.22
2023-03-11T16:59:55.442Z,97695.78
2023-03-11T17:02:24.512Z,97703.91
2023-03-11T17:04:52.049Z,97709.03
2023-03-11T17:07:18.855Z,97710.09
2023-03-11T17:09:45.958Z,97724.47
2023-03-11T17:12:15.729Z,97730.78
2023-03-11T17:14:42.861Z,97737.97
2023-03-11T17:17:09.757Z,97742.09
2023-03-11T17:19:36.869Z,97760.09
2023-03-11T17:22:03.967Z,97758.63
2023-03-11T17:24:31.166Z,97764.59
2023-03-11T17:26:58.397Z,97773.47
2023-03-11T17:29:25.602Z,97771.84
2023-03-11T17:31:52.464Z,97777.38
2023-03-11T17:34:19.833Z,97778.69
2023-03-11T17:36:46.625Z,97776.88
2023-03-11T17:39:13.714Z,97783.66
2023-03-11T17:41:40.469Z,97786.00
2023-03-11T17:44:07.658Z,97786.75
2023-03-11T17:46:36.328Z,97789.78
2023-03-11T17:49:03.535Z,97799.72
2023-03-11T17:51:30.532Z,97802.06
2023-03-11T17:53:57.699Z,97813.63
2023-03-11T17:56:24.571Z,97819.72
2023-03-11T17:58:52.056Z,97820.56
2023-03-11T18:01:20.912Z,97826.16
2023-03-11T18:03:48.219Z,97831.38
2023-03-11T18:06:15.140Z,97835.13
2023-03-11T18:08:42.268Z,97838.66
2023-03-11T18:11:11.772Z,97839.00
2023-03-11T18:13:39.022Z,97853.94
2023-03-11T18:16:07.981Z,97853.44
2023-03-11T18:18:35.812Z,97860.38
2023-03-11T18:21:04.443Z,97863.16
2023-03-11T18:23:33.214Z,97867.69
2023-03-11T18:26:01.106Z,97873.34
2023-03-11T18:28:28.331Z,97884.47
2023-03-11T18:30:55.352Z,97878.38
2023-03-11T18:33:23.776Z,97887.34
2023-03-11T18:35:50.946Z,97896.56
2023-03-11T18:38:18.112Z,97889.28
2023-03-11T18:40:45.002Z,97898.03
2023-03-11T18:43:14.223Z,97899.97
2023-03-11T18:45:41.101Z,97899.66
2023-03-11T18:48:08.246Z,97901.03
2023-03-11T18:50:35.049Z,97908.84
2023-03-11T18:53:02.199Z,97906.38
2023-03-11T18:55:29.051Z,97914.09
2023-03-11T18:57:56.139Z,97916.75
2023-03-11T19:00:23.758Z,97925.75
2023-03-11T19:02:54.864Z,97915.81
2023-03-11T19:05:21.926Z,97926.94
2023-03-11T19:07:48.992Z,97925.63
2023-03-11T19:10:18.030Z,97922.94
2023-03-11T19:12:45.607Z,97932.81
2023-03-11T19:15:12.699Z,97927.34
2023-03-11T19:17:40.050Z,97926.28
2023-03-11T19:20:08.773Z,97934.75
2023-03-11T19:22:36.644Z,97936.56
2023-03-11T19:25:04.571Z,97938.38
2023-03-11T19:27:31.856Z,97940.19
2023-03-11T19:29:58.684Z,97944.59
2023-03-11T19:32:25.815Z,97941.81
2023-03-11T19:34:52.658Z,97944.69
2023-03-11T19:37:19.769Z,97939.88
2023-03-11T19:39:46.567Z,97946.72
2023-03-11T19:42:14.095Z,97956.44
2023-03-11T19:44:40.923Z,97960.94
2023-03-11T19:47:08.101Z,97963.72
2023-03-11T19:49:34.873Z,97971.53
2023-03-11T19:52:02.407Z,97971.84
2023-03-11T19:54:29.310Z,97976.47
2023-03-11T19:56:56.377Z,97978.25
2023-03-11T19:59:23.243Z,97980.81
2023-03-11T20:01:50.354Z,97983.50
2023-03-11T20:04:17.250Z,97989.38
2023-03-11T20:06:44.804Z,97989.94
2023-03-11T20:09:12.645Z,97996.53
2023-03-11T20:11:40.398Z,97995.78
2023-03-11T20:14:07.535Z,98000.94
2023-03-11T20:16:34.691Z,98010.34
2023-03-11T20:19:01.668Z,98015.47
2023-03-11T20:21:28.796Z,98011.94
2023-03-11T20:23:55.926Z,98006.69
2023-03-11T20:26:23.550Z,98006.69
2023-03-11T20:28:50.396Z,98012.03
2023-03-11T20:31:22.407Z,98015.91
2023-03-11T20:33:49.771Z,98014.94
2023-03-11T20:36:20.477Z,98021.25
2023-03-11T20:38:51.580Z,98024.84
2023-03-11T20:41:19.251Z,98024.00
2023-03-11T20:43:46.136Z,98020.69
2023-03-11T20:46:13.415Z,98025.19
2023-03-11T20:48:40.373Z,98028.81
2023-03-11T20:51:10.353Z,98033.53
2023-03-11T20:53:37.366Z,98030.84
2023-03-11T20:56:15.519Z,98037.03
2023-03-11T20:58:43.221Z,98035.44
2023-03-11T21:01:17.831Z,98030.09
2023-03-11T21:03:45.006Z,98030.19
2023-03-11T21:06:23.206Z,98033.81
2023-03-11T21:08:50.242Z,98037.44
2023-03-11T21:11:17.509Z,98034.75
2023-03-11T21:13:44.529Z,98034.75
2023-03-11T21:16:11.794Z,98040.13
2023-03-11T21:18:38.836Z,98041.09
2023-03-11T21:21:08.497Z,98047.13
2023-03-11T21:23:35.909Z,98043.84
2023-03-11T21:26:03.469Z,98046.09
2023-03-11T21:28:31.858Z,98054.22
2023-03-11T21:31:04.527Z,98056.88
2023-03-11T21:33:31.755Z,98054.19
2023-03-11T21:35:59.625Z,98062.63
2023-03-11T21:38:26.862Z,98058.25
2023-03-11T21:40:54.218Z,98059.00
2023-03-11T21:43:21.125Z,98066.38
2023-03-11T21:45:48.368Z,98061.88
2023-03-11T21:48:15.220Z,98066.38
2023-03-11T21:50:42.401Z,98062.06
2023-03-11T21:53:09.289Z,98066.69
2023-03-11T21:55:36.492Z,98067.97
2023-03-11T21:58:03.422Z,98070.63
2023-03-11T22:00:30.511Z,98076.91
2023-03-11T22:02:57.576Z,98084.94
2023-03-11T22:05:25.354Z,98083.22
2023-03-11T22:07:52.389Z,98079.91
2023-03-11T22:10:19.708Z,98083.53
2023-03-11T22:12:46.589Z,98096.03
2023-03-11T22:15:13.795Z,98095.19
2023-03-11T22:17:40.662Z,98095.19
2023-03-11T22:20:10.016Z,98100.72
2023-03-11T22:22:36.909Z,98096.13
2023-03-11T22:25:04.529Z,98089.09
2023-03-11T22:27:31.646Z,98096.22
2023-03-11T22:29:58.738Z,98099.97
2023-03-11T22:32:25.583Z,98099.97
2023-03-11T22:34:52.668Z,98091.97
2023-03-11T22:37:19.399Z,98096.47
2023-03-11T22:39:46.444Z,98101.81
2023-03-11T22:42:13.237Z,98096.56
2023-03-11T22:44:40.298Z,98096.56
2023-03-11T22:47:07.069Z,98101.91
2023-03-11T22:49:34.118Z,98098.88
2023-03-11T22:52:00.898Z,98103.03
2023-03-11T22:54:28.111Z,98095.91
2023-03-11T22:56:54.919Z,98097.69
2023-03-11T22:59:21.969Z,98095.13
2023-03-11T23:01:48.829Z,98097.16
2023-03-11T23:04:15.942Z,98100.56
2023-03-11T23:06:42.726Z,98103.16
2023-03-11T23:09:09.763Z,98103.47
2023-03-11T23:11:36.498Z,98115.09
2023-03-11T23:14:03.510Z,98107.94
2023-03-11T23:16:31.296Z,98102.59
2023-03-11T23:18:58.398Z,98106.13
2023-03-11T23:21:27.330Z,98106.25
2023-03-11T23:23:54.519Z,98109.75
2023-03-11T23:26:21.470Z,98113.38
2023-03-11T23:28:51.027Z,98111.78
2023-03-11T23:31:18.203Z,98113.47
2023-03-11T23:33:45.558Z,98115.38
2023-03-11T23:36:14.707Z,98115.50
2023-03-11T23:38:41.791Z,98120.84
2023-03-11T23:41:10.486Z,98132.50
2023-03-11T23:43:38.769Z,98127.25
2023-03-11T23:46:05.912Z,98128.28
2023-03-11T23:48:32.990Z,98135.47
2023-03-11T23:50:59.730Z,98140.13
2023-03-11T23:53:27.142Z,98143.75
2023-03-11T23:55:54.154Z,98140.34
2023-03-11T23:58:21.305Z,98138.59
